Time;durP1;ratioP1;P1;durP2;ratioP2;P2;SDS_P1;SDS_P2;PMS_P1;PMS_P2;Temp;Humidity;BMP_temperature;BMP_pressure;BME280_temperature;BME280_humidity;BME280_pressure;Samples;Min_cycle;Max_cycle;Signal;HPM_P1;HPM_P2
2022/12/29 00:01:36;;;;;;;1.70;1.03;;;10.50;99.90;;;;;;6160079;23;20350;-82
2022/12/29 00:04:03;;;;;;;2.40;2.17;;;10.50;99.90;;;;;;6210387;23;20202;-79
2022/12/29 00:06:29;;;;;;;2.00;1.13;;;10.50;99.90;;;;;;6210462;23;20193;-80
2022/12/29 00:08:55;;;;;;;1.50;1.40;;;10.50;99.90;;;;;;6183797;23;20202;-82
2022/12/29 00:11:24;;;;;;;1.40;1.03;;;10.50;99.90;;;;;;6210619;23;20204;-81
2022/12/29 00:16:36;;;;;;;1.90;1.73;;;10.50;99.90;;;;;;6210846;23;20626;-82
2022/12/29 00:19:03;;;;;;;2.67;1.67;;;10.50;99.90;;;;;;6183893;23;20237;-81
2022/12/29 00:35:43;;;;;;;3.43;1.40;;;10.30;99.90;;;;;;6117919;23;20195;-82
2022/12/29 00:46:24;;;;;;;3.03;1.63;;;10.30;99.90;;;;;;6187415;23;20182;-79
2022/12/29 00:51:33;;;;;;;3.47;2.57;;;10.40;99.90;;;;;;6210241;23;20197;-79
2022/12/29 00:53:59;;;;;;;1.40;1.30;;;10.40;99.90;;;;;;6183609;23;20190;-80
2022/12/29 00:56:25;;;;;;;1.90;1.80;;;10.40;99.90;;;;;;6183690;23;20209;-83
2022/12/29 00:58:51;;;;;;;1.97;1.63;;;10.40;99.90;;;;;;6184579;23;20173;-79
2022/12/29 01:01:16;;;;;;;2.10;1.90;;;10.40;99.90;;;;;;6183315;23;20200;-84
2022/12/29 01:03:42;;;;;;;1.50;1.27;;;10.40;99.90;;;;;;6209552;23;20229;-81
2022/12/29 01:06:10;;;;;;;2.27;2.07;;;10.40;99.90;;;;;;6194965;23;20201;-83
2022/12/29 01:08:36;;;;;;;2.23;1.90;;;10.40;99.90;;;;;;6182465;23;20202;-82
2022/12/29 01:11:07;;;;;;;2.23;2.00;;;10.30;99.90;;;;;;6182760;23;20185;-79
2022/12/29 01:13:34;;;;;;;1.70;1.60;;;10.40;99.90;;;;;;6183534;23;20189;-79
2022/12/29 01:15:59;;;;;;;3.10;2.63;;;10.30;99.90;;;;;;6182747;23;20194;-81
2022/12/29 01:18:25;;;;;;;3.50;2.07;;;10.30;99.90;;;;;;6210113;23;20240;-81
2022/12/29 01:20:58;;;;;;;2.37;2.17;;;10.30;99.90;;;;;;6184199;23;20200;-81
2022/12/29 01:23:24;;;;;;;1.87;1.77;;;10.40;99.90;;;;;;6210267;23;20185;-80
2022/12/29 01:25:49;;;;;;;2.07;1.93;;;10.40;99.90;;;;;;6184469;23;20240;-80
2022/12/29 01:28:15;;;;;;;2.20;1.80;;;10.40;99.90;;;;;;6183538;23;20204;-79
2022/12/29 01:30:40;;;;;;;1.60;1.50;;;10.40;99.90;;;;;;6209685;23;20206;-80
2022/12/29 01:33:06;;;;;;;2.57;2.37;;;10.30;99.90;;;;;;6209688;23;20201;-80
2022/12/29 01:35:32;;;;;;;2.13;1.90;;;10.30;99.90;;;;;;6183523;23;20209;-81
2022/12/29 01:37:58;;;;;;;2.07;1.87;;;10.30;99.90;;;;;;6210106;23;20216;-81
2022/12/29 01:40:24;;;;;;;2.43;1.80;;;10.30;99.90;;;;;;6158249;23;20185;-85
2022/12/29 01:42:50;;;;;;;2.13;1.93;;;10.30;99.90;;;;;;6182463;23;20579;-79
2022/12/29 01:45:17;;;;;;;2.13;1.93;;;10.30;99.90;;;;;;6157701;23;20225;-80
2022/12/29 01:47:53;;;;;;;3.27;2.97;;;10.30;99.90;;;;;;6159766;23;20190;-85
2022/12/29 01:50:31;;;;;;;2.80;2.60;;;10.40;99.90;;;;;;6210982;23;20216;-80
2022/12/29 01:53:01;;;;;;;9.20;2.53;;;10.40;99.90;;;;;;6212480;23;20146;-80
2022/12/29 01:55:31;;;;;;;3.07;1.90;;;10.50;99.90;;;;;;6211043;23;20187;-80
2022/12/29 01:58:02;;;;;;;1.47;1.20;;;10.50;99.90;;;;;;6185182;23;20316;-82
2022/12/29 02:00:28;;;;;;;1.40;1.27;;;10.50;99.90;;;;;;6211926;23;20212;-81
2022/12/29 02:02:54;;;;;;;2.17;1.40;;;10.50;99.90;;;;;;6160860;23;20189;-79
2022/12/29 02:05:23;;;;;;;1.60;1.50;;;10.50;99.90;;;;;;6185382;23;20343;-80
2022/12/29 02:07:51;;;;;;;1.63;0.90;;;10.50;99.90;;;;;;6212602;23;20162;-83
2022/12/29 02:10:21;;;;;;;1.80;1.70;;;10.50;99.90;;;;;;6185364;23;20590;-80
2022/12/29 02:12:47;;;;;;;1.30;1.17;;;10.50;99.90;;;;;;6185827;23;20194;-83
2022/12/29 02:15:14;;;;;;;1.93;1.83;;;10.50;99.90;;;;;;6185355;23;20194;-79
2022/12/29 02:18:12;;;;;;;3.73;2.03;;;10.50;99.90;;;;;;6185538;23;20192;-80
2022/12/29 02:20:57;;;;;;;1.47;1.17;;;10.50;99.90;;;;;;6212273;23;20194;-79
2022/12/29 02:23:48;;;;;;;2.30;1.57;;;10.50;99.90;;;;;;6149675;23;20245;-83
2022/12/29 02:26:22;;;;;;;1.60;1.53;;;10.40;99.90;;;;;;6211739;23;20150;-79
2022/12/29 02:29:07;;;;;;;0.93;0.80;;;10.40;99.90;;;;;;6212467;23;20741;-80
2022/12/29 02:31:59;;;;;;;2.10;1.27;;;10.40;99.90;;;;;;6211811;23;20664;-80
2022/12/29 02:34:39;;;;;;;0.70;0.70;;;10.40;99.90;;;;;;6185504;23;20189;-83
2022/12/29 02:37:11;;;;;;;1.00;1.00;;;10.40;99.90;;;;;;6185199;23;20193;-80
2022/12/29 02:39:39;;;;;;;0.37;0.37;;;10.40;99.90;;;;;;6211011;23;20388;-82
2022/12/29 02:42:43;;;;;;;0.90;0.87;;;10.40;99.90;;;;;;6184182;23;20260;-84
2022/12/29 02:45:26;;;;;;;1.07;1.07;;;10.40;99.90;;;;;;6211088;23;20189;-79
2022/12/29 02:48:01;;;;;;;2.07;0.70;;;10.30;99.90;;;;;;6185072;23;20189;-80
2022/12/29 02:50:36;;;;;;;0.60;0.60;;;10.30;99.90;;;;;;6184906;23;20201;-79
2022/12/29 02:53:13;;;;;;;0.23;0.23;;;10.30;99.90;;;;;;6211150;23;20146;-84
2022/12/29 02:55:41;;;;;;;0.40;0.40;;;10.30;99.90;;;;;;6211953;23;20212;-82
2022/12/29 02:58:20;;;;;;;0.20;0.20;;;10.30;99.90;;;;;;6159147;23;20200;-80
2022/12/29 03:01:23;;;;;;;0.63;0.50;;;10.40;99.90;;;;;;6210484;23;20225;-79
2022/12/29 03:04:17;;;;;;;1.20;1.10;;;10.40;99.90;;;;;;6184223;23;20220;-79
2022/12/29 03:06:51;;;;;;;0.93;0.80;;;10.40;99.90;;;;;;6184461;23;20668;-80
2022/12/29 03:09:30;;;;;;;0.30;0.30;;;10.40;99.90;;;;;;6210911;23;20202;-80
2022/12/29 03:12:08;;;;;;;0.73;0.67;;;10.40;99.90;;;;;;6210409;23;20189;-79
2022/12/29 03:17:33;;;;;;;0.60;0.60;;;10.50;99.90;;;;;;6210118;23;20755;-84
2022/12/29 03:20:07;;;;;;;5.93;0.63;;;10.50;99.90;;;;;;6210852;23;20169;-80
2022/12/29 03:22:39;;;;;;;0.50;0.50;;;10.50;99.90;;;;;;6212011;23;20145;-78
2022/12/29 03:25:18;;;;;;;0.50;0.50;;;10.50;99.90;;;;;;6184176;23;20190;-83
2022/12/29 03:27:55;;;;;;;1.23;0.57;;;10.50;99.90;;;;;;6210884;23;20705;-80
2022/12/29 03:30:21;;;;;;;1.00;0.90;;;10.40;99.90;;;;;;6210859;23;20201;-80
2022/12/29 03:32:52;;;;;;;0.33;0.33;;;10.30;99.90;;;;;;6184578;23;20190;-80
2022/12/29 03:35:22;;;;;;;0.43;0.43;;;10.30;99.90;;;;;;6210679;23;20596;-80
2022/12/29 03:38:21;;;;;;;4.33;2.33;;;10.30;99.90;;;;;;6184941;23;20158;-79
2022/12/29 03:40:52;;;;;;;1.40;0.60;;;10.20;99.90;;;;;;6184769;23;20228;-79
2022/12/29 03:43:18;;;;;;;3.03;0.60;;;10.20;99.90;;;;;;6184350;23;20641;-79
2022/12/29 03:45:44;;;;;;;10.80;1.40;;;10.20;99.90;;;;;;6159725;23;20832;-81
2022/12/29 03:48:10;;;;;;;4.17;0.73;;;10.10;99.90;;;;;;6210414;23;20221;-82
2022/12/29 03:50:36;;;;;;;1.83;1.70;;;10.10;99.90;;;;;;6159575;23;20205;-79
2022/12/29 03:53:01;;;;;;;1.93;0.83;;;10.00;99.90;;;;;;6184407;23;20707;-80
2022/12/29 03:55:27;;;;;;;14.43;1.07;;;10.00;99.90;;;;;;6185108;23;20166;-80
2022/12/29 03:57:53;;;;;;;6.20;1.27;;;10.00;99.90;;;;;;6184186;23;20626;-79
2022/12/29 04:00:18;;;;;;;3.00;0.77;;;9.90;99.90;;;;;;6184255;23;20579;-82
2022/12/29 04:02:44;;;;;;;0.20;0.20;;;9.90;99.90;;;;;;6210547;23;20190;-79
2022/12/29 04:05:10;;;;;;;1.17;0.70;;;9.90;99.90;;;;;;6184564;23;20166;-83
2022/12/29 04:07:36;;;;;;;0.57;0.57;;;9.90;99.90;;;;;;6184503;23;20161;-79
2022/12/29 04:10:03;;;;;;;10.33;1.23;;;9.90;99.90;;;;;;6159264;23;20216;-79
2022/12/29 04:12:29;;;;;;;5.27;1.33;;;9.90;99.90;;;;;;6184051;23;20278;-80
2022/12/29 04:14:54;;;;;;;0.57;0.57;;;9.90;99.90;;;;;;6159412;23;20214;-79
2022/12/29 04:17:20;;;;;;;4.33;0.80;;;9.90;99.90;;;;;;6210276;23;20226;-80
2022/12/29 04:19:46;;;;;;;0.67;0.67;;;9.80;99.90;;;;;;6210621;23;20185;-83
2022/12/29 04:22:12;;;;;;;1.90;0.57;;;9.80;99.90;;;;;;6159392;23;20194;-80
2022/12/29 04:24:37;;;;;;;4.23;1.10;;;9.80;99.90;;;;;;6184424;23;20267;-83
2022/12/29 04:27:04;;;;;;;2.13;0.80;;;9.70;99.90;;;;;;6184141;23;20197;-80
2022/12/29 04:29:29;;;;;;;1.07;1.07;;;9.70;99.90;;;;;;6210085;23;20510;-80
2022/12/29 04:31:55;;;;;;;0.43;0.43;;;9.70;99.90;;;;;;6184802;23;20213;-80
2022/12/29 04:34:21;;;;;;;5.53;1.47;;;9.70;99.90;;;;;;6183878;23;20193;-80
2022/12/29 04:36:46;;;;;;;22.17;1.23;;;9.70;99.90;;;;;;6159381;23;20762;-80
2022/12/29 04:39:12;;;;;;;0.20;0.20;;;9.70;99.90;;;;;;6209983;23;20210;-79
2022/12/29 04:41:38;;;;;;;1.10;1.10;;;9.60;99.90;;;;;;6210566;23;20790;-85
2022/12/29 04:44:04;;;;;;;0.83;0.17;;;9.60;99.90;;;;;;6210144;23;20159;-79
2022/12/29 04:46:29;;;;;;;0.87;0.87;;;9.70;99.90;;;;;;6135255;23;20158;-79
2022/12/29 04:48:55;;;;;;;0.73;0.63;;;9.60;99.90;;;;;;6158852;23;20661;-83
2022/12/29 04:51:21;;;;;;;1.80;1.13;;;9.70;99.90;;;;;;6134580;23;20198;-81
2022/12/29 04:53:46;;;;;;;3.20;0.97;;;9.70;99.90;;;;;;6159183;23;20189;-81
2022/12/29 04:56:12;;;;;;;0.50;0.50;;;9.70;99.90;;;;;;6209990;23;20647;-79
2022/12/29 04:58:38;;;;;;;3.90;2.13;;;9.60;99.90;;;;;;6210390;23;20223;-79
2022/12/29 05:01:04;;;;;;;1.13;0.87;;;9.60;99.90;;;;;;6183875;23;20186;-80
2022/12/29 05:03:29;;;;;;;6.50;0.50;;;9.60;99.90;;;;;;6134419;23;20244;-80
2022/12/29 05:05:56;;;;;;;1.03;1.03;;;9.60;99.90;;;;;;6159390;23;20196;-84
2022/12/29 05:08:22;;;;;;;8.10;1.33;;;9.60;99.90;;;;;;6209992;23;20189;-79
2022/12/29 05:10:50;;;;;;;13.00;3.07;;;9.60;99.90;;;;;;6184678;23;20166;-81
2022/12/29 05:13:16;;;;;;;1.33;0.43;;;9.60;99.90;;;;;;6209969;23;20198;-83
2022/12/29 05:15:53;;;;;;;2.30;0.97;;;9.70;99.90;;;;;;6183640;23;20225;-81
2022/12/29 05:18:19;;;;;;;1.30;0.87;;;9.70;99.90;;;;;;6168202;23;20415;-82
2022/12/29 05:20:45;;;;;;;7.27;2.23;;;9.80;99.90;;;;;;6204679;23;20192;-80
2022/12/29 05:23:11;;;;;;;0.70;0.70;;;9.80;99.90;;;;;;6209987;23;20151;-78
2022/12/29 05:25:37;;;;;;;4.13;1.70;;;9.80;99.90;;;;;;6159341;23;20161;-81
2022/12/29 05:28:03;;;;;;;8.47;2.17;;;9.80;99.90;;;;;;6209896;23;20198;-80
2022/12/29 05:30:28;;;;;;;2.63;1.37;;;9.80;99.90;;;;;;6183263;23;20265;-79
2022/12/29 05:32:54;;;;;;;5.80;2.47;;;9.70;99.90;;;;;;6183586;23;20829;-83
2022/12/29 05:35:21;;;;;;;1.83;1.73;;;9.80;99.90;;;;;;6209570;23;20531;-79
2022/12/29 05:37:47;;;;;;;12.33;1.30;;;9.80;99.90;;;;;;6183613;23;20158;-79
2022/12/29 05:40:12;;;;;;;12.93;1.47;;;9.80;99.90;;;;;;6133524;23;20205;-82
2022/12/29 05:42:38;;;;;;;0.83;0.67;;;9.80;99.90;;;;;;6182911;23;20198;-81
2022/12/29 05:45:06;;;;;;;6.90;1.23;;;9.80;99.90;;;;;;6209672;23;20524;-82
2022/12/29 05:47:33;;;;;;;1.17;0.93;;;9.80;99.90;;;;;;6183937;23;20523;-83
2022/12/29 05:49:58;;;;;;;0.77;0.73;;;9.80;99.90;;;;;;6209402;23;20192;-79
2022/12/29 05:52:24;;;;;;;8.77;1.47;;;9.80;99.90;;;;;;6183946;23;20220;-79
2022/12/29 05:54:50;;;;;;;2.23;1.43;;;9.80;99.90;;;;;;6183790;23;20198;-79
2022/12/29 05:57:16;;;;;;;12.93;1.03;;;9.80;99.90;;;;;;6209748;23;20288;-81
2022/12/29 05:59:42;;;;;;;0.20;0.20;;;9.90;99.90;;;;;;6183310;23;20222;-84
2022/12/29 06:02:08;;;;;;;9.90;1.60;;;9.90;99.90;;;;;;6183308;23;20166;-80
2022/12/29 06:04:34;;;;;;;2.93;2.30;;;9.80;99.90;;;;;;6183606;23;20165;-81
2022/12/29 06:07:00;;;;;;;1.50;1.40;;;9.80;99.90;;;;;;6183578;23;20558;-81
2022/12/29 06:09:25;;;;;;;6.23;0.50;;;9.70;99.90;;;;;;6158161;23;20273;-80
2022/12/29 06:11:51;;;;;;;3.87;0.90;;;9.70;99.90;;;;;;6183145;23;20202;-83
2022/12/29 06:14:17;;;;;;;0.90;0.53;;;9.80;99.90;;;;;;6182997;23;20271;-79
2022/12/29 06:16:43;;;;;;;1.03;1.03;;;9.70;99.90;;;;;;6183469;23;20522;-80
2022/12/29 06:19:08;;;;;;;8.30;1.20;;;9.70;99.90;;;;;;6133502;23;20524;-81
2022/12/29 06:21:34;;;;;;;4.23;0.90;;;9.70;99.90;;;;;;6132784;23;20189;-80
2022/12/29 06:24:00;;;;;;;0.77;0.77;;;9.70;99.90;;;;;;6182088;23;20221;-84
2022/12/29 06:26:26;;;;;;;0.70;0.70;;;9.60;99.90;;;;;;6182393;23;20190;-79
2022/12/29 06:28:51;;;;;;;3.50;1.30;;;9.60;99.90;;;;;;6157919;23;20197;-81
2022/12/29 06:31:17;;;;;;;4.93;1.57;;;9.60;99.90;;;;;;6181680;23;20228;-84
2022/12/29 06:33:43;;;;;;;2.90;2.70;;;9.60;99.90;;;;;;6209481;23;20630;-82
2022/12/29 06:36:09;;;;;;;4.03;1.47;;;9.60;99.90;;;;;;6134517;23;20186;-80
2022/12/29 06:38:35;;;;;;;4.87;1.23;;;9.50;99.90;;;;;;6183451;23;20198;-80
2022/12/29 06:41:01;;;;;;;4.43;0.60;;;9.50;99.90;;;;;;6210459;23;20165;-84
2022/12/29 06:43:26;;;;;;;9.27;1.40;;;9.50;99.90;;;;;;6159667;23;20575;-79
2022/12/29 06:45:52;;;;;;;7.40;1.50;;;9.50;99.90;;;;;;6183673;23;20704;-82
2022/12/29 06:48:18;;;;;;;0.87;0.87;;;9.50;99.90;;;;;;6183814;23;20197;-82
2022/12/29 06:50:43;;;;;;;0.77;0.70;;;9.40;99.90;;;;;;6183048;23;20228;-81
2022/12/29 06:53:09;;;;;;;2.23;0.57;;;9.50;99.90;;;;;;6159377;23;20464;-81
2022/12/29 06:55:35;;;;;;;1.80;1.27;;;9.50;99.90;;;;;;6184734;23;20159;-79
2022/12/29 06:58:01;;;;;;;0.70;0.50;;;9.50;99.90;;;;;;6210809;23;20209;-79
2022/12/29 07:00:27;;;;;;;6.03;1.13;;;9.50;99.90;;;;;;6184347;23;20198;-80
2022/12/29 07:02:54;;;;;;;6.97;1.60;;;9.50;99.90;;;;;;6184358;23;20411;-81
2022/12/29 07:05:20;;;;;;;9.90;1.07;;;9.50;99.90;;;;;;6159336;23;20270;-81
2022/12/29 07:07:46;;;;;;;8.57;3.07;;;9.60;99.90;;;;;;6136366;23;20177;-80
2022/12/29 07:10:11;;;;;;;1.07;1.07;;;9.60;99.90;;;;;;6209659;23;20441;-80
2022/12/29 07:12:37;;;;;;;3.97;1.73;;;9.70;99.90;;;;;;6183326;23;20194;-84
2022/12/29 07:15:03;;;;;;;5.73;0.77;;;9.70;99.90;;;;;;6158834;23;20240;-80
2022/12/29 07:17:29;;;;;;;0.60;0.60;;;9.70;99.90;;;;;;6182992;23;20247;-82
2022/12/29 07:19:55;;;;;;;2.67;1.33;;;9.70;99.90;;;;;;6210585;23;20597;-82
2022/12/29 07:22:20;;;;;;;0.80;0.57;;;9.70;99.90;;;;;;6158262;23;20221;-84
2022/12/29 07:24:46;;;;;;;0.87;0.83;;;9.80;99.90;;;;;;6183023;23;20190;-80
2022/12/29 07:27:12;;;;;;;5.77;2.47;;;9.70;99.90;;;;;;6158444;23;20540;-81
2022/12/29 07:29:38;;;;;;;1.87;1.40;;;9.70;99.90;;;;;;6157952;23;20212;-83
2022/12/29 07:32:04;;;;;;;5.40;1.90;;;9.70;99.90;;;;;;6183553;23;20154;-80
2022/12/29 07:34:30;;;;;;;2.40;0.67;;;9.70;99.90;;;;;;6211186;23;20160;-80
2022/12/29 07:36:56;;;;;;;6.17;1.73;;;9.70;99.90;;;;;;6210611;23;20277;-82
2022/12/29 07:39:21;;;;;;;0.70;0.70;;;9.70;99.90;;;;;;6210719;23;20210;-83
2022/12/29 07:41:47;;;;;;;1.90;0.63;;;9.60;99.90;;;;;;6184009;23;20264;-86
2022/12/29 07:44:13;;;;;;;4.60;2.53;;;9.60;99.90;;;;;;6210314;23;20241;-84
2022/12/29 07:46:39;;;;;;;1.17;1.00;;;9.60;99.90;;;;;;6159784;23;20161;-83
2022/12/29 07:49:04;;;;;;;3.17;1.53;;;9.60;99.90;;;;;;6159089;23;20680;-80
2022/12/29 07:51:31;;;;;;;0.73;0.73;;;9.60;99.90;;;;;;6183362;23;20281;-80
2022/12/29 07:53:59;;;;;;;3.60;0.60;;;9.60;99.90;;;;;;6182834;23;20194;-81
2022/12/29 07:56:24;;;;;;;1.67;1.57;;;9.50;99.90;;;;;;6209538;23;20244;-81
2022/12/29 07:58:50;;;;;;;8.40;0.70;;;9.50;99.90;;;;;;6185119;23;20170;-84
2022/12/29 08:01:16;;;;;;;0.53;0.53;;;9.50;99.90;;;;;;6157023;23;20200;-91
2022/12/29 08:03:42;;;;;;;0.93;0.93;;;9.50;99.90;;;;;;6183596;23;20189;-87
2022/12/29 08:06:12;;;;;;;4.23;1.43;;;9.60;99.90;;;;;;6120541;23;20229;-91
2022/12/29 08:08:38;;;;;;;6.60;2.87;;;9.50;99.90;;;;;;6183639;23;20221;-86
2022/12/29 08:11:04;;;;;;;12.50;1.70;;;9.60;99.90;;;;;;6159734;23;20594;-87
2022/12/29 08:13:30;;;;;;;4.00;1.97;;;9.50;99.90;;;;;;6160130;23;20311;-86
2022/12/29 08:15:59;;;;;;;4.27;0.90;;;9.50;99.90;;;;;;6184489;23;20288;-91
2022/12/29 08:18:24;;;;;;;0.20;0.20;;;9.50;99.90;;;;;;6210654;23;20621;-92
2022/12/29 08:20:50;;;;;;;2.47;1.20;;;9.50;99.90;;;;;;6184307;23;20186;-89
2022/12/29 08:23:16;;;;;;;2.43;2.17;;;9.60;99.90;;;;;;6183804;23;20158;-87
2022/12/29 08:25:42;;;;;;;6.50;2.07;;;9.60;99.90;;;;;;6185053;23;20154;-87
2022/12/29 08:28:08;;;;;;;7.10;2.03;;;9.70;99.90;;;;;;6183925;23;20339;-88
2022/12/29 08:30:37;;;;;;;4.20;2.60;;;9.70;99.90;;;;;;6183867;23;20210;-87
2022/12/29 08:33:02;;;;;;;4.47;1.07;;;9.70;99.90;;;;;;6194692;23;20194;-86
2022/12/29 08:35:28;;;;;;;1.83;1.73;;;9.60;99.90;;;;;;6183292;23;20196;-91
2022/12/29 08:37:54;;;;;;;1.40;1.30;;;9.60;99.90;;;;;;6211108;23;20241;-85
2022/12/29 08:40:20;;;;;;;6.70;2.47;;;9.60;99.90;;;;;;6210928;23;20272;-85
2022/12/29 08:42:45;;;;;;;5.23;1.50;;;9.60;99.90;;;;;;6135092;23;20193;-89
2022/12/29 08:45:11;;;;;;;6.60;2.20;;;9.60;99.90;;;;;;6210558;23;20661;-86
2022/12/29 08:47:37;;;;;;;6.43;2.10;;;9.60;99.90;;;;;;6184247;23;20629;-90
2022/12/29 08:50:06;;;;;;;28.80;3.00;;;9.60;99.90;;;;;;6159311;23;20197;-88
2022/12/29 08:52:32;;;;;;;3.57;3.23;;;9.50;99.90;;;;;;6211492;23;20208;-86
2022/12/29 08:54:57;;;;;;;4.23;2.13;;;9.40;99.90;;;;;;6159664;23;20194;-89
2022/12/29 08:57:23;;;;;;;5.63;1.50;;;9.40;99.90;;;;;;6184541;23;20190;-85
2022/12/29 08:59:49;;;;;;;3.67;2.70;;;9.40;99.90;;;;;;6159468;23;20362;-85
2022/12/29 09:02:15;;;;;;;2.40;1.40;;;9.50;99.90;;;;;;6158879;23;20162;-88
2022/12/29 09:04:40;;;;;;;5.90;2.00;;;9.50;99.90;;;;;;6184724;23;20150;-89
2022/12/29 09:07:06;;;;;;;10.10;2.73;;;9.60;99.90;;;;;;6211369;23;20260;-85
2022/12/29 09:09:33;;;;;;;3.43;2.03;;;9.70;99.90;;;;;;6184111;23;20201;-85
2022/12/29 09:11:58;;;;;;;3.97;1.37;;;9.70;99.90;;;;;;6183229;23;20221;-91
2022/12/29 09:14:27;;;;;;;11.33;1.63;;;9.70;99.90;;;;;;6134445;23;20190;-85
2022/12/29 09:19:38;;;;;;;4.60;2.23;;;9.70;99.90;;;;;;6210962;23;20182;-84
2022/12/29 09:22:04;;;;;;;6.60;2.53;;;9.80;99.90;;;;;;6210580;23;20594;-84
2022/12/29 09:24:30;;;;;;;13.77;2.47;;;9.70;99.90;;;;;;6209652;23;20534;-84
2022/12/29 09:26:56;;;;;;;0.77;0.77;;;9.70;99.90;;;;;;6210112;23;20240;-89
2022/12/29 09:29:23;;;;;;;10.37;2.20;;;9.70;99.90;;;;;;6183917;23;20205;-84
2022/12/29 09:31:48;;;;;;;4.63;1.53;;;9.70;99.90;;;;;;6211536;23;20154;-85
2022/12/29 09:34:15;;;;;;;4.37;2.20;;;9.70;99.90;;;;;;6159100;23;20721;-84
2022/12/29 09:36:41;;;;;;;3.30;0.80;;;9.70;99.90;;;;;;6209986;23;20264;-85
2022/12/29 09:39:07;;;;;;;4.83;1.97;;;9.70;99.90;;;;;;6209803;23;20236;-86
2022/12/29 09:41:43;;;;;;;5.67;1.63;;;9.70;99.90;;;;;;6210552;23;20272;-85
2022/12/29 09:44:23;;;;;;;3.97;1.83;;;9.70;99.90;;;;;;6184286;23;20145;-85
2022/12/29 09:46:53;;;;;;;7.20;1.90;;;9.70;99.90;;;;;;6184918;23;20169;-85
2022/12/29 09:49:19;;;;;;;4.10;3.13;;;9.70;99.90;;;;;;6184192;23;20202;-86
2022/12/29 09:51:50;;;;;;;7.53;1.73;;;9.70;99.90;;;;;;6183571;23;20221;-84
2022/12/29 09:54:30;;;;;;;0.20;0.20;;;9.70;99.90;;;;;;6182745;23;20197;-84
2022/12/29 09:56:56;;;;;;;2.40;1.47;;;9.70;99.90;;;;;;6182748;23;20189;-87
2022/12/29 09:59:34;;;;;;;4.93;0.97;;;9.80;99.90;;;;;;6183297;23;20679;-84
2022/12/29 10:02:24;;;;;;;4.70;1.10;;;9.80;99.90;;;;;;6182392;23;20149;-84
2022/12/29 10:04:51;;;;;;;10.77;1.53;;;9.80;99.90;;;;;;6183246;23;20181;-86
2022/12/29 10:07:44;;;;;;;2.93;1.03;;;9.90;99.90;;;;;;6183604;23;20190;-83
2022/12/29 10:10:17;;;;;;;7.10;2.17;;;9.90;99.90;;;;;;6211597;23;20800;-90
2022/12/29 10:12:56;;;;;;;5.67;2.00;;;10.00;99.90;;;;;;6186043;23;20225;-85
2022/12/29 10:15:56;;;;;;;1.77;1.63;;;9.90;99.90;;;;;;6172466;23;20198;-85
2022/12/29 10:18:56;;;;;;;2.53;1.97;;;9.80;99.90;;;;;;6182618;23;20194;-83
2022/12/29 10:21:59;;;;;;;2.20;1.13;;;9.90;99.90;;;;;;6203538;23;20194;-84
2022/12/29 10:24:28;;;;;;;12.50;2.30;;;9.90;99.90;;;;;;6213253;23;20189;-83
2022/12/29 10:26:57;;;;;;;4.33;2.27;;;9.90;99.90;;;;;;6186578;23;20190;-84
2022/12/29 10:29:37;;;;;;;2.50;1.37;;;9.90;99.90;;;;;;6212799;23;20570;-87
2022/12/29 10:32:36;;;;;;;6.87;2.70;;;10.00;99.90;;;;;;6186205;23;20514;-87
2022/12/29 10:35:32;;;;;;;4.67;1.57;;;9.90;99.90;;;;;;6164017;23;20242;-84
2022/12/29 10:38:04;;;;;;;4.90;0.60;;;9.90;99.90;;;;;;6189316;23;20162;-87
2022/12/29 10:40:42;;;;;;;2.93;1.70;;;9.90;99.90;;;;;;6212937;23;20626;-85
2022/12/29 10:43:24;;;;;;;7.77;1.87;;;9.90;99.90;;;;;;6212085;23;20190;-85
2022/12/29 10:46:09;;;;;;;1.40;1.30;;;9.90;99.90;;;;;;6211539;23;20224;-88
2022/12/29 10:48:35;;;;;;;5.00;1.70;;;9.90;99.90;;;;;;6210401;23;20189;-93
2022/12/29 10:51:04;;;;;;;5.40;1.50;;;10.00;99.90;;;;;;6211112;23;20265;-88
2022/12/29 10:53:37;;;;;;;4.30;0.83;;;10.10;99.90;;;;;;6185028;23;20637;-85
2022/12/29 10:56:13;;;;;;;7.23;2.20;;;10.00;99.90;;;;;;6185591;23;20244;-82
2022/12/29 10:58:49;;;;;;;5.27;1.07;;;10.00;99.90;;;;;;6213932;23;20145;-83
2022/12/29 11:01:17;;;;;;;3.03;1.20;;;10.00;99.90;;;;;;6187657;23;20196;-83
2022/12/29 11:03:50;;;;;;;0.53;0.53;;;10.10;99.90;;;;;;6213233;23;20202;-83
2022/12/29 11:06:25;;;;;;;0.40;0.40;;;10.10;99.90;;;;;;6187745;23;20194;-88
2022/12/29 11:09:37;;;;;;;1.03;0.43;;;10.10;99.90;;;;;;6213182;23;20594;-83
2022/12/29 11:12:29;;;;;;;2.53;1.60;;;10.00;99.90;;;;;;6212824;23;20208;-85
2022/12/29 11:15:10;;;;;;;1.50;1.40;;;10.00;99.90;;;;;;6199762;23;20264;-84
2022/12/29 11:17:53;;;;;;;0.50;0.40;;;10.00;99.90;;;;;;6212619;23;20256;-87
2022/12/29 11:20:31;;;;;;;1.70;0.40;;;10.00;99.90;;;;;;6185559;23;20256;-88
2022/12/29 11:22:57;;;;;;;0.43;0.43;;;10.00;99.90;;;;;;6186572;23;20146;-84
2022/12/29 11:25:23;;;;;;;2.17;0.50;;;10.00;99.90;;;;;;6186237;23;20657;-83
2022/12/29 11:28:18;;;;;;;2.63;1.33;;;10.00;99.90;;;;;;6186330;23;20202;-86
2022/12/29 11:30:44;;;;;;;0.77;0.77;;;10.00;99.90;;;;;;6141407;23;20213;-84
2022/12/29 11:33:10;;;;;;;2.27;0.30;;;10.00;99.90;;;;;;6160517;23;20190;-86
2022/12/29 11:35:40;;;;;;;0.20;0.20;;;10.00;99.90;;;;;;6171999;23;20244;-88
2022/12/29 11:38:21;;;;;;;0.97;0.40;;;10.00;99.90;;;;;;6211302;23;20744;-85
2022/12/29 11:40:48;;;;;;;0.30;0.30;;;10.00;99.90;;;;;;6212627;23;20146;-88
2022/12/29 11:43:39;;;;;;;0.10;0.10;;;10.00;99.90;;;;;;6160141;23;20186;-85
2022/12/29 11:46:06;;;;;;;10.17;1.17;;;10.00;99.90;;;;;;6184529;23;20593;-85
2022/12/29 11:48:41;;;;;;;0.87;0.70;;;10.00;99.90;;;;;;6210884;23;20217;-84
2022/12/29 11:51:09;;;;;;;0.67;0.67;;;10.00;99.90;;;;;;6160426;23;20201;-84
2022/12/29 11:53:47;;;;;;;3.47;2.50;;;10.00;99.90;;;;;;6211452;23;20186;-89
2022/12/29 11:56:16;;;;;;;2.53;0.60;;;10.00;99.90;;;;;;6185174;23;20150;-84
2022/12/29 11:58:42;;;;;;;0.30;0.30;;;10.00;99.90;;;;;;6185462;23;20155;-88
2022/12/29 12:01:17;;;;;;;0.47;0.47;;;10.00;99.90;;;;;;6184558;23;20195;-85
2022/12/29 12:04:03;;;;;;;3.47;0.80;;;10.10;99.90;;;;;;6211511;23;20570;-89
2022/12/29 12:06:35;;;;;;;1.60;1.33;;;10.10;99.90;;;;;;6185332;23;20244;-89
2022/12/29 12:09:14;;;;;;;1.40;0.40;;;10.10;99.90;;;;;;6184842;23;20201;-88
2022/12/29 12:11:45;;;;;;;9.53;2.50;;;10.10;99.90;;;;;;6185217;23;20255;-87
2022/12/29 12:14:42;;;;;;;0.67;0.67;;;10.10;99.90;;;;;;6211427;23;20150;-87
2022/12/29 12:17:27;;;;;;;1.37;1.13;;;10.10;99.90;;;;;;6184898;23;20201;-90
2022/12/29 12:20:06;;;;;;;0.30;0.30;;;10.10;99.90;;;;;;6185669;23;20200;-83
2022/12/29 12:22:48;;;;;;;2.10;1.13;;;10.10;99.90;;;;;;6184375;23;20190;-83
2022/12/29 12:25:21;;;;;;;0.40;0.40;;;10.10;99.90;;;;;;6183688;23;20261;-87
2022/12/29 12:28:11;;;;;;;6.60;1.13;;;10.10;99.90;;;;;;6210496;23;20192;-84
2022/12/29 12:30:43;;;;;;;1.50;0.50;;;10.10;99.90;;;;;;6184446;23;20229;-84
2022/12/29 12:33:32;;;;;;;0.40;0.27;;;10.10;99.90;;;;;;6184951;23;20193;-83
2022/12/29 12:36:43;;;;;;;0.33;0.33;;;10.10;99.90;;;;;;6184057;23;20190;-85
2022/12/29 12:39:33;;;;;;;0.40;0.40;;;10.10;99.90;;;;;;6183869;23;20272;-85
2022/12/29 12:42:51;;;;;;;4.03;1.00;;;10.10;99.90;;;;;;6183521;23;20194;-84
2022/12/29 12:45:57;;;;;;;7.77;1.07;;;10.10;99.90;;;;;;6095706;23;20198;-87
2022/12/29 12:48:46;;;;;;;1.00;0.83;;;10.30;99.90;;;;;;6184050;23;20201;-87
2022/12/29 12:51:47;;;;;;;0.40;0.40;;;10.90;99.90;;;;;;6172443;23;20201;-87
2022/12/29 12:54:35;;;;;;;0.30;0.23;;;11.60;99.90;;;;;;6184930;23;20193;-85
2022/12/29 12:57:17;;;;;;;1.43;1.10;;;11.70;99.90;;;;;;6183704;23;20252;-85
2022/12/29 13:00:05;;;;;;;0.60;0.60;;;11.40;99.90;;;;;;6208377;23;20197;-91
2022/12/29 13:02:48;;;;;;;2.57;1.27;;;11.20;99.90;;;;;;6182996;23;20217;-86
2022/12/29 13:05:55;;;;;;;0.57;0.40;;;11.10;99.90;;;;;;6208830;23;20601;-85
2022/12/29 13:08:24;;;;;;;6.33;1.10;;;10.90;99.90;;;;;;6181502;23;20200;-90
2022/12/29 13:11:28;;;;;;;8.20;0.63;;;10.90;99.90;;;;;;6183162;23;20217;-86
2022/12/29 13:14:06;;;;;;;13.27;1.00;;;10.80;99.90;;;;;;6062080;23;20625;-86
2022/12/29 13:16:51;;;;;;;8.83;0.60;;;10.80;99.90;;;;;;6183928;23;20185;-88
2022/12/29 13:19:24;;;;;;;0.30;0.30;;;10.60;99.90;;;;;;6183779;23;20506;-86
2022/12/29 13:22:21;;;;;;;0.20;0.20;;;10.60;99.90;;;;;;6183800;23;20201;-84
2022/12/29 13:25:08;;;;;;;1.80;0.83;;;10.40;99.90;;;;;;6201828;23;20628;-85
2022/12/29 13:27:51;;;;;;;5.63;0.40;;;10.30;99.90;;;;;;6186169;23;20700;-86
2022/12/29 13:30:30;;;;;;;3.13;0.73;;;10.20;99.90;;;;;;6211732;23;20220;-88
2022/12/29 13:33:20;;;;;;;0.30;0.30;;;10.10;99.90;;;;;;6183333;23;20224;-88
2022/12/29 13:35:58;;;;;;;6.60;1.03;;;10.10;99.90;;;;;;6182187;23;20335;-91
2022/12/29 13:38:42;;;;;;;0.50;0.50;;;10.10;99.90;;;;;;6182319;23;20198;-87
2022/12/29 13:41:18;;;;;;;1.57;0.73;;;10.10;99.90;;;;;;6182350;23;20172;-87
2022/12/29 13:43:46;;;;;;;0.27;0.27;;;10.00;99.90;;;;;;6185272;23;20618;-88
2022/12/29 13:46:23;;;;;;;3.00;1.33;;;10.00;99.90;;;;;;6184911;23;20220;-86
2022/12/29 13:48:53;;;;;;;1.63;0.73;;;10.00;99.90;;;;;;6184865;23;20193;-88